Time;durP1;ratioP1;P1;durP2;ratioP2;P2;SDS_P1;SDS_P2;PMS_P1;PMS_P2;Temp;Humidity;BMP_temperature;BMP_pressure;BME280_temperature;BME280_humidity;BME280_pressure;Samples;Min_cycle;Max_cycle;Signal;HPM_P1;HPM_P2
2021/04/23 00:00:35;;;;;;;5.00;2.33;;;;;;;;;;5093526;28;20176;-60
2021/04/23 00:03:04;;;;;;;6.50;2.63;;;;;;;;;;5087337;28;20238;-60
2021/04/23 00:05:30;;;;;;;4.27;2.70;;;;;;;;;;5090401;28;20266;-61
2021/04/23 00:07:56;;;;;;;4.90;2.97;;;;;;;;;;5091747;28;20207;-61
2021/04/23 00:10:24;;;;;;;4.00;2.43;;;;;;;;;;5091336;28;20207;-60
2021/04/23 00:12:50;;;;;;;5.73;2.90;;;;;;;;;;5090217;28;20607;-60
2021/04/23 00:15:18;;;;;;;4.93;2.80;;;;;;;;;;5075835;28;20206;-62
2021/04/23 00:17:44;;;;;;;6.53;2.83;;;;;;;;;;5090245;28;20634;-60
2021/04/23 00:20:13;;;;;;;3.30;2.40;;;;;;;;;;5091566;28;20238;-61
2021/04/23 00:22:39;;;;;;;4.83;3.00;;;;;;;;;;5069020;28;20626;-63
2021/04/23 00:25:06;;;;;;;5.43;2.37;;;;;;;;;;5065351;28;20199;-60
2021/04/23 00:27:32;;;;;;;5.83;2.40;;;;;;;;;;5069564;28;20192;-60
2021/04/23 00:30:00;;;;;;;6.03;3.20;;;;;;;;;;5092396;28;20167;-61
2021/04/23 00:35:11;;;;;;;2.73;2.50;;;;;;;;;;5089715;28;20183;-62
2021/04/23 00:37:37;;;;;;;6.90;3.03;;;;;;;;;;5090713;28;20321;-60
2021/04/23 00:40:04;;;;;;;5.33;2.63;;;;;;;;;;5060354;28;20609;-61
2021/04/23 00:42:30;;;;;;;6.87;2.83;;;;;;;;;;5057857;28;20238;-61
2021/04/23 00:44:56;;;;;;;13.23;3.43;;;;;;;;;;5086467;28;20593;-60
2021/04/23 00:47:22;;;;;;;3.73;2.80;;;;;;;;;;5087476;28;20662;-61
2021/04/23 00:49:48;;;;;;;7.63;2.80;;;;;;;;;;5089343;28;20245;-60
2021/04/23 00:52:14;;;;;;;3.80;3.03;;;;;;;;;;5089159;28;20268;-60
2021/04/23 00:54:40;;;;;;;4.43;2.37;;;;;;;;;;5085033;28;20190;-61
2021/04/23 00:57:06;;;;;;;6.13;2.83;;;;;;;;;;5082578;28;20184;-61
2021/04/23 00:59:32;;;;;;;4.83;2.57;;;;;;;;;;5082397;28;20171;-61
2021/04/23 01:02:00;;;;;;;5.73;2.90;;;;;;;;;;5070237;28;20796;-61
2021/04/23 01:04:29;;;;;;;4.57;2.80;;;;;;;;;;5080388;28;20241;-61
2021/04/23 01:06:55;;;;;;;5.53;3.10;;;;;;;;;;5084357;28;20250;-63
2021/04/23 01:09:22;;;;;;;5.20;3.03;;;;;;;;;;5084804;28;20188;-62
2021/04/23 01:11:48;;;;;;;4.53;2.47;;;;;;;;;;5057928;28;20311;-61
2021/04/23 01:14:14;;;;;;;6.70;3.50;;;;;;;;;;5057136;28;20560;-61
2021/04/23 01:16:40;;;;;;;5.90;3.17;;;;;;;;;;5090247;28;20251;-61
2021/04/23 01:19:11;;;;;;;7.10;3.27;;;;;;;;;;5075742;28;20233;-61
2021/04/23 01:21:38;;;;;;;5.67;3.27;;;;;;;;;;5061874;28;20291;-60
2021/04/23 01:24:05;;;;;;;5.27;3.23;;;;;;;;;;5084504;28;20569;-61
2021/04/23 01:26:32;;;;;;;7.20;3.43;;;;;;;;;;5066361;28;20909;-61
2021/04/23 01:28:59;;;;;;;6.30;3.13;;;;;;;;;;5087212;28;20180;-61
2021/04/23 01:31:26;;;;;;;6.57;3.47;;;;;;;;;;5090540;28;20179;-62
2021/04/23 01:33:54;;;;;;;3.70;2.90;;;;;;;;;;5081724;28;20215;-61
2021/04/23 01:36:20;;;;;;;3.20;2.80;;;;;;;;;;5088466;28;20229;-61
2021/04/23 01:38:48;;;;;;;4.77;3.40;;;;;;;;;;5064824;28;20177;-61
2021/04/23 01:41:14;;;;;;;6.17;3.57;;;;;;;;;;5081013;28;20256;-61
2021/04/23 01:43:40;;;;;;;5.37;3.30;;;;;;;;;;5072034;28;20183;-62
2021/04/23 01:46:07;;;;;;;6.70;3.30;;;;;;;;;;5083673;28;20180;-61
2021/04/23 01:48:34;;;;;;;6.27;3.47;;;;;;;;;;5081282;28;20200;-61
2021/04/23 01:51:00;;;;;;;5.57;3.00;;;;;;;;;;5086324;28;20287;-63
2021/04/23 01:53:27;;;;;;;5.63;3.42;;;;;;;;;;5062571;28;20532;-61
2021/04/23 01:55:53;;;;;;;6.67;3.37;;;;;;;;;;5087550;28;20171;-61
2021/04/23 01:58:19;;;;;;;3.63;3.23;;;;;;;;;;5088512;28;20175;-61
2021/04/23 02:00:48;;;;;;;5.43;3.43;;;;;;;;;;5082867;28;20186;-63
2021/04/23 02:03:14;;;;;;;6.50;3.73;;;;;;;;;;5083591;28;20380;-61
2021/04/23 02:05:41;;;;;;;4.97;3.33;;;;;;;;;;5091419;28;20183;-63
2021/04/23 02:08:09;;;;;;;5.27;3.37;;;;;;;;;;5070677;28;20203;-61
2021/04/23 02:10:42;;;;;;;5.83;3.40;;;;;;;;;;5085605;28;20193;-61
2021/04/23 02:13:08;;;;;;;5.23;3.63;;;;;;;;;;5086055;28;20176;-61
2021/04/23 02:15:34;;;;;;;4.23;3.33;;;;;;;;;;5088406;28;20649;-61
2021/04/23 02:18:01;;;;;;;5.07;3.20;;;;;;;;;;5085189;28;20530;-63
2021/04/23 02:20:30;;;;;;;5.90;3.40;;;;;;;;;;5058483;28;20182;-60
2021/04/23 02:22:57;;;;;;;7.57;3.30;;;;;;;;;;5088695;28;20184;-61
2021/04/23 02:25:24;;;;;;;3.33;2.90;;;;;;;;;;5085390;28;20192;-61
2021/04/23 02:27:51;;;;;;;9.03;4.10;;;;;;;;;;5083572;28;20207;-61
2021/04/23 02:30:19;;;;;;;5.83;3.67;;;;;;;;;;5089797;28;20255;-61
2021/04/23 02:32:45;;;;;;;5.07;3.33;;;;;;;;;;5083907;28;20592;-61
2021/04/23 02:35:12;;;;;;;5.13;3.47;;;;;;;;;;5078184;28;20680;-62
2021/04/23 02:37:39;;;;;;;6.37;4.20;;;;;;;;;;5082245;28;20186;-62
2021/04/23 02:40:06;;;;;;;5.33;3.43;;;;;;;;;;5088351;28;20534;-61
2021/04/23 02:42:33;;;;;;;6.67;3.17;;;;;;;;;;5086156;28;20190;-60
2021/04/23 02:44:59;;;;;;;4.40;3.20;;;;;;;;;;5082655;28;20179;-60
2021/04/23 02:47:25;;;;;;;4.90;3.10;;;;;;;;;;5068694;28;20199;-60
2021/04/23 02:49:52;;;;;;;7.93;3.80;;;;;;;;;;5089413;28;20199;-61
2021/04/23 02:52:18;;;;;;;6.50;3.93;;;;;;;;;;5088466;28;20175;-60
2021/04/23 02:54:44;;;;;;;6.03;4.33;;;;;;;;;;5086638;28;20185;-60
2021/04/23 02:57:10;;;;;;;5.43;4.17;;;;;;;;;;5068171;28;20172;-60
2021/04/23 02:59:36;;;;;;;6.13;3.80;;;;;;;;;;5083199;28;20623;-62
2021/04/23 03:02:02;;;;;;;4.20;3.50;;;;;;;;;;5077233;28;20682;-60
2021/04/23 03:04:28;;;;;;;6.13;3.57;;;;;;;;;;5058113;28;20183;-60
2021/04/23 03:06:55;;;;;;;4.93;3.83;;;;;;;;;;5067211;28;20192;-60
2021/04/23 03:09:21;;;;;;;5.87;4.00;;;;;;;;;;5068703;28;20199;-63
2021/04/23 03:11:48;;;;;;;6.20;4.03;;;;;;;;;;5061789;28;20207;-61
2021/04/23 03:14:14;;;;;;;8.40;4.17;;;;;;;;;;5071129;28;20172;-62
2021/04/23 03:16:41;;;;;;;8.87;4.43;;;;;;;;;;5085454;28;20544;-60
2021/04/23 03:19:14;;;;;;;6.60;4.00;;;;;;;;;;5081583;28;20250;-60
2021/04/23 03:21:41;;;;;;;5.60;4.17;;;;;;;;;;5088457;28;20255;-61
2021/04/23 03:24:08;;;;;;;5.77;3.53;;;;;;;;;;5065490;28;20269;-60
2021/04/23 03:26:36;;;;;;;6.17;4.27;;;;;;;;;;5082769;28;20176;-59
2021/04/23 03:29:04;;;;;;;6.93;4.57;;;;;;;;;;5079022;28;20179;-61
2021/04/23 03:31:30;;;;;;;6.40;4.60;;;;;;;;;;5067253;28;20198;-60
2021/04/23 03:33:56;;;;;;;7.30;4.50;;;;;;;;;;5058389;28;20184;-60
2021/04/23 03:36:22;;;;;;;4.67;4.00;;;;;;;;;;5084674;28;20638;-60
2021/04/23 03:38:50;;;;;;;5.83;4.00;;;;;;;;;;5058189;28;20270;-60
2021/04/23 03:41:24;;;;;;;8.73;3.80;;;;;;;;;;5079548;28;20640;-63
2021/04/23 03:43:50;;;;;;;6.43;3.77;;;;;;;;;;5089737;28;20176;-60
2021/04/23 03:46:16;;;;;;;6.73;4.30;;;;;;;;;;5070890;28;20240;-63
2021/04/23 03:48:43;;;;;;;6.40;4.03;;;;;;;;;;5090063;28;20662;-61
2021/04/23 03:51:10;;;;;;;5.07;3.80;;;;;;;;;;5072246;28;20211;-60
2021/04/23 03:53:36;;;;;;;6.50;3.93;;;;;;;;;;5065206;28;20213;-60
2021/04/23 03:56:04;;;;;;;5.63;3.93;;;;;;;;;;5089498;28;20654;-61
2021/04/23 03:58:31;;;;;;;6.50;4.23;;;;;;;;;;5087534;28;20183;-60
2021/04/23 04:01:08;;;;;;;9.47;4.37;;;;;;;;;;5082247;28;20668;-60
2021/04/23 04:03:36;;;;;;;8.07;4.50;;;;;;;;;;5083190;28;20178;-59
2021/04/23 04:06:02;;;;;;;7.63;4.40;;;;;;;;;;5072278;28;20194;-60
2021/04/23 04:08:28;;;;;;;5.17;4.27;;;;;;;;;;5080700;28;20200;-60
2021/04/23 04:10:54;;;;;;;6.30;3.77;;;;;;;;;;5067199;28;20196;-60
2021/04/23 04:13:20;;;;;;;6.17;4.40;;;;;;;;;;5079377;28;20176;-60
2021/04/23 04:15:46;;;;;;;7.40;4.47;;;;;;;;;;5056686;28;20288;-60
2021/04/23 04:18:13;;;;;;;6.97;4.40;;;;;;;;;;5089416;28;20183;-60
2021/04/23 04:20:40;;;;;;;8.17;5.10;;;;;;;;;;5088854;28;20233;-60
2021/04/23 04:23:07;;;;;;;5.63;3.93;;;;;;;;;;5078217;28;20676;-60
2021/04/23 04:25:34;;;;;;;7.83;4.03;;;;;;;;;;5078782;28;20176;-60
2021/04/23 04:28:00;;;;;;;8.03;4.70;;;;;;;;;;5080092;28;20200;-60
2021/04/23 04:30:27;;;;;;;5.23;3.83;;;;;;;;;;5083535;28;20452;-60
2021/04/23 04:32:53;;;;;;;5.07;4.10;;;;;;;;;;5081948;28;21662;-61
2021/04/23 04:35:20;;;;;;;7.73;4.07;;;;;;;;;;5080655;28;20181;-60
2021/04/23 04:37:46;;;;;;;5.67;4.63;;;;;;;;;;5084720;28;20672;-59
2021/04/23 04:40:13;;;;;;;5.93;4.33;;;;;;;;;;5088333;28;20186;-60
2021/04/23 04:42:39;;;;;;;6.37;4.77;;;;;;;;;;5063885;28;20188;-60
2021/04/23 04:45:06;;;;;;;7.30;4.03;;;;;;;;;;5075104;28;20177;-60
2021/04/23 04:47:34;;;;;;;6.93;4.70;;;;;;;;;;5066473;28;20216;-61
2021/04/23 04:50:01;;;;;;;7.43;4.57;;;;;;;;;;5080816;28;20666;-60
2021/04/23 04:52:27;;;;;;;5.67;4.10;;;;;;;;;;5080144;28;20184;-62
2021/04/23 04:54:53;;;;;;;7.23;4.73;;;;;;;;;;5078552;28;20509;-60
2021/04/23 04:57:20;;;;;;;4.10;3.70;;;;;;;;;;5090639;28;20183;-60
2021/04/23 04:59:47;;;;;;;6.10;4.70;;;;;;;;;;5076812;28;20184;-60
2021/04/23 05:02:13;;;;;;;8.87;4.63;;;;;;;;;;5080277;28;20557;-60
2021/04/23 05:04:39;;;;;;;6.33;4.40;;;;;;;;;;5079598;28;20195;-60
2021/04/23 05:07:06;;;;;;;7.80;4.03;;;;;;;;;;5082951;28;20212;-60
2021/04/23 05:09:32;;;;;;;5.53;4.20;;;;;;;;;;5079802;28;20199;-60
2021/04/23 05:11:58;;;;;;;8.70;5.07;;;;;;;;;;5078147;28;20233;-60
2021/04/23 05:14:24;;;;;;;6.50;3.93;;;;;;;;;;5073008;28;20212;-60
2021/04/23 05:16:51;;;;;;;6.00;4.30;;;;;;;;;;5087430;28;20588;-59
2021/04/23 05:19:17;;;;;;;9.47;4.67;;;;;;;;;;5071938;28;20276;-60
2021/04/23 05:21:43;;;;;;;7.70;4.90;;;;;;;;;;5070685;28;20252;-60
2021/04/23 05:24:09;;;;;;;7.30;4.67;;;;;;;;;;5073395;28;20208;-60
2021/04/23 05:26:35;;;;;;;6.47;4.03;;;;;;;;;;5075658;28;20180;-61
2021/04/23 05:29:01;;;;;;;6.10;4.13;;;;;;;;;;5084277;28;20191;-59
2021/04/23 05:31:27;;;;;;;7.97;4.27;;;;;;;;;;5080611;28;20176;-62
2021/04/23 05:33:53;;;;;;;9.97;4.57;;;;;;;;;;5073901;28;20226;-60
2021/04/23 05:36:19;;;;;;;7.50;4.40;;;;;;;;;;5068982;28;20183;-59
2021/04/23 05:38:45;;;;;;;6.33;4.30;;;;;;;;;;5087945;28;20177;-60
2021/04/23 05:41:12;;;;;;;6.43;5.10;;;;;;;;;;5060295;28;20227;-60
2021/04/23 05:43:39;;;;;;;8.37;5.10;;;;;;;;;;5087581;28;20184;-62
2021/04/23 05:46:05;;;;;;;6.97;4.37;;;;;;;;;;5078812;28;20649;-60
2021/04/23 05:48:31;;;;;;;8.97;4.93;;;;;;;;;;5090206;28;20214;-60
2021/04/23 05:50:57;;;;;;;6.80;4.53;;;;;;;;;;5085441;28;20544;-59
2021/04/23 05:53:23;;;;;;;5.90;4.10;;;;;;;;;;5067002;28;20179;-60
2021/04/23 05:55:49;;;;;;;8.00;5.20;;;;;;;;;;5077032;28;20182;-60
2021/04/23 05:58:15;;;;;;;5.83;4.23;;;;;;;;;;5090831;28;20225;-60
2021/04/23 06:00:43;;;;;;;6.97;4.57;;;;;;;;;;5082594;28;20180;-60
2021/04/23 06:03:09;;;;;;;8.40;4.63;;;;;;;;;;5087863;28;20198;-60
2021/04/23 06:05:35;;;;;;;7.33;4.17;;;;;;;;;;5077158;28;20186;-61
2021/04/23 06:08:03;;;;;;;5.30;4.10;;;;;;;;;;5084088;28;20219;-60
2021/04/23 06:10:29;;;;;;;5.33;4.30;;;;;;;;;;5076775;28;20180;-60
2021/04/23 06:12:57;;;;;;;6.03;4.43;;;;;;;;;;5071868;28;20204;-60
2021/04/23 06:15:23;;;;;;;7.40;4.97;;;;;;;;;;5069514;28;20186;-60
2021/04/23 06:17:50;;;;;;;9.43;4.40;;;;;;;;;;5091051;28;20180;-60
2021/04/23 06:20:19;;;;;;;7.33;4.70;;;;;;;;;;5090270;28;20175;-59
2021/04/23 06:22:46;;;;;;;8.63;4.67;;;;;;;;;;5089227;28;20630;-60
2021/04/23 06:25:14;;;;;;;7.47;4.57;;;;;;;;;;5084609;28;20187;-60
2021/04/23 06:27:41;;;;;;;6.97;4.30;;;;;;;;;;5088767;28;20195;-59
2021/04/23 06:30:09;;;;;;;8.50;4.77;;;;;;;;;;5085277;28;20175;-60
2021/04/23 06:32:36;;;;;;;6.87;4.13;;;;;;;;;;5072117;28;20288;-60
2021/04/23 06:35:02;;;;;;;7.40;4.33;;;;;;;;;;5090035;28;20209;-60
2021/04/23 06:37:28;;;;;;;9.17;3.90;;;;;;;;;;5090053;28;20225;-60
2021/04/23 06:39:54;;;;;;;6.13;3.90;;;;;;;;;;5061974;28;20192;-60
2021/04/23 06:42:20;;;;;;;8.30;4.40;;;;;;;;;;5067361;28;20183;-59
2021/04/23 06:44:46;;;;;;;6.60;3.60;;;;;;;;;;5061385;28;20195;-59
2021/04/23 06:47:12;;;;;;;7.73;4.17;;;;;;;;;;5071658;28;20195;-60
2021/04/23 06:49:38;;;;;;;8.83;4.63;;;;;;;;;;5067615;28;20196;-61
2021/04/23 06:52:04;;;;;;;6.27;3.90;;;;;;;;;;5077535;28;20180;-62
2021/04/23 06:54:31;;;;;;;5.63;3.67;;;;;;;;;;5052358;28;20169;-60
2021/04/23 06:56:57;;;;;;;7.13;3.40;;;;;;;;;;5076756;28;20200;-59
2021/04/23 06:59:23;;;;;;;7.83;3.43;;;;;;;;;;5087334;28;20225;-60
2021/04/23 07:01:49;;;;;;;9.40;4.30;;;;;;;;;;5089806;28;20180;-60
2021/04/23 07:04:15;;;;;;;9.53;3.50;;;;;;;;;;5102281;28;20180;-60
2021/04/23 07:06:42;;;;;;;8.33;3.77;;;;;;;;;;5086808;28;20175;-60
2021/04/23 07:09:09;;;;;;;5.83;3.70;;;;;;;;;;5085336;28;20268;-60
2021/04/23 07:11:35;;;;;;;5.20;3.90;;;;;;;;;;5090065;28;20195;-60
2021/04/23 07:14:02;;;;;;;8.63;3.83;;;;;;;;;;5052677;28;20238;-59
2021/04/23 07:16:29;;;;;;;3.77;3.07;;;;;;;;;;5081700;28;20582;-59
2021/04/23 07:18:55;;;;;;;5.83;3.40;;;;;;;;;;5086602;28;20172;-59
2021/04/23 07:21:21;;;;;;;7.77;3.47;;;;;;;;;;5089170;28;20175;-59
2021/04/23 07:23:47;;;;;;;5.43;2.87;;;;;;;;;;5088025;28;20172;-59
2021/04/23 07:26:13;;;;;;;5.60;2.50;;;;;;;;;;5087062;28;20531;-59
2021/04/23 07:28:39;;;;;;;7.47;3.07;;;;;;;;;;5084707;28;20191;-61
2021/04/23 07:31:05;;;;;;;6.03;2.47;;;;;;;;;;5089598;28;20187;-60
2021/04/23 07:33:31;;;;;;;5.13;2.80;;;;;;;;;;5066241;28;20219;-60
2021/04/23 07:35:57;;;;;;;3.20;2.13;;;;;;;;;;5082344;28;20181;-59
2021/04/23 07:38:23;;;;;;;6.73;2.43;;;;;;;;;;5071068;28;20540;-60
2021/04/23 07:40:49;;;;;;;5.13;2.73;;;;;;;;;;5085060;28;20207;-61
2021/04/23 07:43:15;;;;;;;3.43;2.20;;;;;;;;;;5075151;28;20188;-61
2021/04/23 07:45:41;;;;;;;3.40;3.00;;;;;;;;;;5080545;28;20199;-60
2021/04/23 07:48:07;;;;;;;4.40;2.30;;;;;;;;;;5090322;28;20199;-60
2021/04/23 07:50:34;;;;;;;3.03;2.20;;;;;;;;;;5077347;28;20205;-60
2021/04/23 07:53:00;;;;;;;5.40;3.20;;;;;;;;;;5089933;28;20184;-59
2021/04/23 07:55:26;;;;;;;3.50;2.40;;;;;;;;;;5080539;28;20183;-59
2021/04/23 07:57:53;;;;;;;3.20;2.43;;;;;;;;;;5073900;28;20188;-59
2021/04/23 08:00:20;;;;;;;4.53;2.60;;;;;;;;;;5089640;28;20172;-62
2021/04/23 08:02:47;;;;;;;5.83;3.30;;;;;;;;;;5086779;28;20557;-60
2021/04/23 08:05:14;;;;;;;7.03;3.23;;;;;;;;;;5084003;28;20184;-60
2021/04/23 08:07:40;;;;;;;5.20;2.67;;;;;;;;;;5086050;28;20313;-60
2021/04/23 08:10:08;;;;;;;5.10;2.43;;;;;;;;;;5084012;28;20554;-60
2021/04/23 08:12:34;;;;;;;6.07;3.15;;;;;;;;;;5091993;28;20741;-62
2021/04/23 08:15:00;;;;;;;3.53;2.40;;;;;;;;;;5087139;28;20172;-61
2021/04/23 08:17:27;;;;;;;2.87;2.13;;;;;;;;;;5093153;28;20194;-60
2021/04/23 08:19:53;;;;;;;3.33;2.23;;;;;;;;;;5082466;28;20176;-61
2021/04/23 08:22:19;;;;;;;4.70;2.37;;;;;;;;;;5076469;28;20176;-60
2021/04/23 08:24:45;;;;;;;5.27;2.03;;;;;;;;;;5066131;28;20184;-61
2021/04/23 08:27:11;;;;;;;5.50;2.50;;;;;;;;;;5075354;28;20231;-61
2021/04/23 08:29:37;;;;;;;5.33;2.23;;;;;;;;;;5087313;28;20190;-60
2021/04/23 08:32:04;;;;;;;4.83;2.40;;;;;;;;;;5080232;28;20212;-60
2021/04/23 08:34:31;;;;;;;7.13;2.47;;;;;;;;;;5069480;28;20619;-62
2021/04/23 08:36:57;;;;;;;4.03;2.47;;;;;;;;;;5086623;28;20221;-60
2021/04/23 08:39:23;;;;;;;2.40;1.97;;;;;;;;;;5091953;28;20206;-61
2021/04/23 08:41:49;;;;;;;5.17;2.93;;;;;;;;;;5092084;28;20209;-60
2021/04/23 08:44:15;;;;;;;4.13;2.30;;;;;;;;;;5083995;28;20188;-60
2021/04/23 08:46:41;;;;;;;5.83;2.70;;;;;;;;;;5067869;28;20624;-60
2021/04/23 08:49:08;;;;;;;5.33;2.60;;;;;;;;;;5091725;28;20221;-60
2021/04/23 08:51:35;;;;;;;6.40;2.47;;;;;;;;;;5087721;28;20523;-60
2021/04/23 08:54:02;;;;;;;5.40;2.80;;;;;;;;;;5087140;28;20173;-60
2021/04/23 08:56:28;;;;;;;5.80;2.88;;;;;;;;;;5068074;28;20459;-59
2021/04/23 08:58:54;;;;;;;4.73;3.17;;;;;;;;;;5072974;28;20180;-59
2021/04/23 09:01:20;;;;;;;3.03;2.00;;;;;;;;;;5068924;28;20187;-59
2021/04/23 09:03:46;;;;;;;4.67;2.67;;;;;;;;;;5066508;28;20184;-60
2021/04/23 09:06:17;;;;;;;4.07;2.23;;;;;;;;;;5091889;28;20279;-59
2021/04/23 09:08:55;;;;;;;3.03;2.67;;;;;;;;;;5091596;28;20199;-60
2021/04/23 09:11:45;;;;;;;5.50;2.77;;;;;;;;;;5090594;28;20618;-60
2021/04/23 09:14:12;;;;;;;5.03;2.90;;;;;;;;;;5075648;28;20480;-60
2021/04/23 09:16:52;;;;;;;5.90;2.57;;;;;;;;;;5084031;28;20183;-60
2021/04/23 09:19:20;;;;;;;7.23;3.00;;;;;;;;;;5079687;28;20250;-60
2021/04/23 09:21:47;;;;;;;5.10;2.80;;;;;;;;;;5071608;28;20284;-60
2021/04/23 09:24:18;;;;;;;6.27;2.60;;;;;;;;;;5085988;28;20195;-60
2021/04/23 09:26:45;;;;;;;4.43;2.40;;;;;;;;;;5092039;28;20175;-60
2021/04/23 09:29:22;;;;;;;4.30;2.60;;;;;;;;;;5074609;28;20696;-60
2021/04/23 09:31:48;;;;;;;4.17;2.50;;;;;;;;;;5091442;28;20170;-59
2021/04/23 09:34:17;;;;;;;5.07;2.33;;;;;;;;;;5074208;28;20230;-59
2021/04/23 09:36:47;;;;;;;6.23;2.40;;;;;;;;;;5090969;28;20179;-60
2021/04/23 09:39:16;;;;;;;5.07;2.80;;;;;;;;;;5082497;28;20519;-60
2021/04/23 09:42:02;;;;;;;6.00;2.67;;;;;;;;;;5085063;28;20506;-60
2021/04/23 09:44:31;;;;;;;4.50;2.13;;;;;;;;;;5073664;28;20176;-60
2021/04/23 09:47:16;;;;;;;8.50;2.67;;;;;;;;;;5073376;28;20223;-60
2021/04/23 09:49:43;;;;;;;5.63;2.60;;;;;;;;;;5087319;28;20231;-59
2021/04/23 09:52:11;;;;;;;3.10;2.40;;;;;;;;;;5070916;28;20687;-60
2021/04/23 09:54:37;;;;;;;4.30;2.87;;;;;;;;;;5102764;28;20176;-62
2021/04/23 09:57:12;;;;;;;4.60;2.80;;;;;;;;;;5091670;28;20180;-60
2021/04/23 09:59:46;;;;;;;6.70;2.80;;;;;;;;;;5073911;28;20175;-60
2021/04/23 10:02:14;;;;;;;6.00;2.80;;;;;;;;;;5091444;28;20203;-60
2021/04/23 10:04:40;;;;;;;5.97;2.60;;;;;;;;;;5091878;28;20183;-60
2021/04/23 10:07:11;;;;;;;5.40;3.10;;;;;;;;;;5091031;28;20650;-61
2021/04/23 10:09:49;;;;;;;5.97;2.60;;;;;;;;;;5087025;28;20180;-63
2021/04/23 10:12:31;;;;;;;5.00;2.80;;;;;;;;;;5081364;28;20199;-60
2021/04/23 10:14:57;;;;;;;5.43;2.93;;;;;;;;;;5071172;28;20177;-60
2021/04/23 10:17:24;;;;;;;7.77;3.37;;;;;;;;;;5090221;28;20205;-60
2021/04/23 10:19:50;;;;;;;4.50;3.20;;;;;;;;;;5090418;28;20548;-62
2021/04/23 10:22:17;;;;;;;5.27;2.90;;;;;;;;;;5062496;28;20187;-60
2021/04/23 10:24:44;;;;;;;5.33;2.70;;;;;;;;;;5090538;28;20543;-61
2021/04/23 10:27:10;;;;;;;5.57;2.60;;;;;;;;;;5059195;28;20249;-61
2021/04/23 10:29:36;;;;;;;5.63;3.00;;;;;;;;;;5064857;28;20217;-61
2021/04/23 10:32:05;;;;;;;7.33;3.27;;;;;;;;;;5082295;28;20346;-61
2021/04/23 10:34:33;;;;;;;6.70;3.33;;;;;;;;;;5087685;28;20237;-61
2021/04/23 10:36:59;;;;;;;6.50;2.90;;;;;;;;;;5083669;28;20659;-61
2021/04/23 10:39:26;;;;;;;8.33;3.23;;;;;;;;;;5083369;28;20176;-61
2021/04/23 10:41:53;;;;;;;6.47;3.10;;;;;;;;;;5083959;28;20190;-61
2021/04/23 10:44:22;;;;;;;7.00;2.93;;;;;;;;;;5077904;28;20179;-62
2021/04/23 10:46:51;;;;;;;5.93;3.20;;;;;;;;;;5082998;28;20168;-61
2021/04/23 10:49:18;;;;;;;6.80;2.80;;;;;;;;;;5072226;28;20238;-63
2021/04/23 10:51:45;;;;;;;5.73;2.90;;;;;;;;;;5086137;28;20167;-61
2021/04/23 10:54:15;;;;;;;5.10;2.70;;;;;;;;;;5086813;28;20175;-61
2021/04/23 10:56:51;;;;;;;3.97;2.67;;;;;;;;;;5087898;28;20210;-61
2021/04/23 10:59:23;;;;;;;6.50;3.70;;;;;;;;;;5078154;28;20188;-62
2021/04/23 11:01:51;;;;;;;7.03;3.43;;;;;;;;;;5058479;28;20172;-62
2021/04/23 11:04:18;;;;;;;8.10;3.10;;;;;;;;;;5067768;28;20188;-64
2021/04/23 11:07:03;;;;;;;4.93;2.47;;;;;;;;;;5060639;28;20204;-62
2021/04/23 11:09:29;;;;;;;6.87;3.30;;;;;;;;;;5070357;28;20172;-62
2021/04/23 11:12:08;;;;;;;8.80;3.20;;;;;;;;;;5064635;28;20180;-61
2021/04/23 11:14:38;;;;;;;7.60;2.87;;;;;;;;;;5081744;28;20186;-61
2021/04/23 11:17:19;;;;;;;4.97;2.77;;;;;;;;;;5085647;28;20271;-62
2021/04/23 11:19:46;;;;;;;8.83;2.50;;;;;;;;;;5085259;28;20189;-62
2021/04/23 11:22:13;;;;;;;9.17;2.93;;;;;;;;;;5081502;28;20180;-61
2021/04/23 11:24:40;;;;;;;5.13;2.73;;;;;;;;;;5088359;28;20171;-61
2021/04/23 11:27:09;;;;;;;6.43;3.00;;;;;;;;;;5067310;28;20219;-61
2021/04/23 11:30:03;;;;;;;5.60;3.03;;;;;;;;;;5080853;28;20184;-61
2021/04/23 11:32:30;;;;;;;5.47;2.93;;;;;;;;;;5084514;28;20227;-62
2021/04/23 11:34:58;;;;;;;7.33;3.40;;;;;;;;;;5067065;28;20274;-61
2021/04/23 11:37:27;;;;;;;9.00;2.73;;;;;;;;;;5083916;28;20263;-62
2021/04/23 11:39:55;;;;;;;8.53;2.73;;;;;;;;;;5082743;28;20184;-61
2021/04/23 11:42:24;;;;;;;7.07;2.80;;;;;;;;;;5062617;28;20180;-62
2021/04/23 11:44:52;;;;;;;4.10;2.80;;;;;;;;;;5090562;28;20636;-62
2021/04/23 11:47:27;;;;;;;4.93;2.30;;;;;;;;;;5070237;28;20271;-62
2021/04/23 11:50:01;;;;;;;5.87;2.70;;;;;;;;;;5087511;28;20287;-62
2021/04/23 11:52:28;;;;;;;4.37;2.70;;;;;;;;;;5083478;28;20194;-62
2021/04/23 11:54:55;;;;;;;5.00;2.83;;;;;;;;;;5083626;28;20578;-61
2021/04/23 11:57:26;;;;;;;4.10;2.77;;;;;;;;;;5073134;28;20665;-61
2021/04/23 12:00:00;;;;;;;4.27;2.70;;;;;;;;;;5085466;28;20179;-62
2021/04/23 12:02:44;;;;;;;8.73;2.87;;;;;;;;;;5075342;28;21632;-61
2021/04/23 12:05:21;;;;;;;4.87;2.77;;;;;;;;;;5090378;28;20184;-61
2021/04/23 12:07:47;;;;;;;6.97;3.20;;;;;;;;;;5095343;28;20207;-61
2021/04/23 12:10:13;;;;;;;6.07;3.00;;;;;;;;;;5082025;28;20202;-61
2021/04/23 12:12:41;;;;;;;8.23;3.10;;;;;;;;;;5063501;28;20180;-61
2021/04/23 12:15:08;;;;;;;2.70;2.40;;;;;;;;;;5070866;28;20184;-62
2021/04/23 12:17:41;;;;;;;7.83;2.60;;;;;;;;;;5075570;28;20190;-61
2021/04/23 12:20:12;;;;;;;6.88;2.78;;;;;;;;;;5091598;28;20508;-61
2021/04/23 12:22:39;;;;;;;4.37;2.97;;;;;;;;;;5091199;28;20748;-61
2021/04/23 12:25:29;;;;;;;3.83;2.37;;;;;;;;;;5074942;28;20207;-61
2021/04/23 12:27:55;;;;;;;5.03;2.40;;;;;;;;;;5077346;28;20192;-61
2021/04/23 12:30:28;;;;;;;7.10;3.30;;;;;;;;;;5087544;28;20171;-61
2021/04/23 12:32:55;;;;;;;6.43;2.50;;;;;;;;;;5083433;28;20200;-61
2021/04/23 12:35:41;;;;;;;3.27;2.70;;;;;;;;;;5090512;28;20191;-61
2021/04/23 12:38:08;;;;;;;5.83;2.93;;;;;;;;;;5078188;28;20517;-62
2021/04/23 12:40:36;;;;;;;9.23;2.60;;;;;;;;;;5085790;28;20215;-61
2021/04/23 12:43:12;;;;;;;5.30;2.60;;;;;;;;;;5054990;28;20184;-61
2021/04/23 12:45:42;;;;;;;4.07;2.70;;;;;;;;;;5082204;28;20191;-61
2021/04/23 12:48:09;;;;;;;8.00;2.90;;;;;;;;;;5090837;28;20199;-61
2021/04/23 12:50:35;;;;;;;6.60;2.80;;;;;;;;;;5091736;28;20278;-61
2021/04/23 12:53:01;;;;;;;7.80;3.37;;;;;;;;;;5092289;28;20222;-60
2021/04/23 12:55:27;;;;;;;6.47;2.77;;;;;;;;;;5089045;28;20180;-61
2021/04/23 12:57:55;;;;;;;3.70;2.63;;;;;;;;;;5091908;28;20694;-61
2021/04/23 13:00:22;;;;;;;5.70;2.93;;;;;;;;;;5091574;28;20736;-61
2021/04/23 13:02:49;;;;;;;9.67;3.07;;;;;;;;;;5088903;28;20643;-61
2021/04/23 13:05:19;;;;;;;6.27;2.80;;;;;;;;;;5086021;28;20229;-61
2021/04/23 13:07:48;;;;;;;5.30;2.70;;;;;;;;;;5085243;28;20196;-61
2021/04/23 13:10:15;;;;;;;6.07;2.37;;;;;;;;;;5064664;28;20177;-61
2021/04/23 13:12:42;;;;;;;7.27;2.43;;;;;;;;;;5079796;28;20196;-61
2021/04/23 13:15:09;;;;;;;4.27;2.17;;;;;;;;;;5089250;28;20187;-61
2021/04/23 13:17:42;;;;;;;5.93;2.63;;;;;;;;;;5091873;28;20187;-61
2021/04/23 13:20:19;;;;;;;4.33;2.83;;;;;;;;;;5082621;28;20179;-58
2021/04/23 13:22:46;;;;;;;4.73;2.87;;;;;;;;;;5065730;28;20556;-58
2021/04/23 13:25:15;;;;;;;6.47;2.67;;;;;;;;;;5090254;28;20198;-58
2021/04/23 13:28:09;;;;;;;7.90;3.20;;;;;;;;;;5092140;28;20203;-61
2021/04/23 13:30:40;;;;;;;9.43;3.40;;;;;;;;;;5063981;28;20183;-61
2021/04/23 13:33:08;;;;;;;4.27;3.07;;;;;;;;;;5091366;28;20219;-61
2021/04/23 13:35:41;;;;;;;5.57;2.93;;;;;;;;;;5090206;28;20187;-60
2021/04/23 13:38:22;;;;;;;6.10;3.20;;;;;;;;;;5092708;28;20626;-59
2021/04/23 13:40:49;;;;;;;5.07;3.47;;;;;;;;;;5087730;28;20183;-62
2021/04/23 13:43:15;;;;;;;6.10;2.93;;;;;;;;;;5090736;28;20183;-61
2021/04/23 13:45:55;;;;;;;8.80;3.67;;;;;;;;;;5088111;28;20892;-61
2021/04/23 13:48:26;;;;;;;10.37;3.23;;;;;;;;;;5090201;28;20199;-61
2021/04/23 13:50:53;;;;;;;8.13;2.33;;;;;;;;;;5088455;28;20192;-61
2021/04/23 13:53:19;;;;;;;7.07;3.10;;;;;;;;;;5089511;28;20259;-60
2021/04/23 13:56:05;;;;;;;10.10;3.37;;;;;;;;;;5090350;28;20199;-60
2021/04/23 13:58:31;;;;;;;6.00;2.20;;;;;;;;;;5091018;28;20203;-63
2021/04/23 14:00:58;;;;;;;4.87;2.30;;;;;;;;;;5085933;28;20184;-61
2021/04/23 14:03:24;;;;;;;5.13;2.60;;;;;;;;;;5091509;28;20180;-61
2021/04/23 14:05:51;;;;;;;4.53;2.03;;;;;;;;;;5087629;28;20175;-61
2021/04/23 14:08:17;;;;;;;4.63;2.13;;;;;;;;;;5084568;28;20239;-60
2021/04/23 14:10:44;;;;;;;3.40;2.53;;;;;;;;;;5088697;28;20188;-60
2021/04/23 14:13:10;;;;;;;4.33;2.23;;;;;;;;;;5056039;28;20535;-61
2021/04/23 14:15:37;;;;;;;4.40;2.30;;;;;;;;;;5082473;28;20163;-61
2021/04/23 14:18:04;;;;;;;7.80;2.73;;;;;;;;;;5064972;28;20321;-62
2021/04/23 14:20:30;;;;;;;6.57;2.93;;;;;;;;;;5082016;28;20182;-60
2021/04/23 14:22:57;;;;;;;6.97;2.20;;;;;;;;;;5070437;28;20209;-61
2021/04/23 14:25:23;;;;;;;3.07;2.47;;;;;;;;;;5074602;28;20188;-61
2021/04/23 14:27:49;;;;;;;5.87;2.20;;;;;;;;;;5077871;28;20201;-62
2021/04/23 14:30:15;;;;;;;6.17;2.37;;;;;;;;;;5089914;28;20179;-62
2021/04/23 14:32:42;;;;;;;7.50;2.50;;;;;;;;;;5085687;28;20222;-62
2021/04/23 14:35:09;;;;;;;6.20;3.03;;;;;;;;;;5083661;28;20635;-61
2021/04/23 14:37:35;;;;;;;5.70;2.67;;;;;;;;;;5090292;28;20187;-61
2021/04/23 14:40:01;;;;;;;3.53;2.20;;;;;;;;;;5085561;28;20264;-63
2021/04/23 14:42:27;;;;;;;4.50;2.33;;;;;;;;;;5069662;28;20630;-61
2021/04/23 14:44:53;;;;;;;6.07;2.30;;;;;;;;;;5070565;28;20184;-61
2021/04/23 14:47:21;;;;;;;5.80;2.10;;;;;;;;;;5086892;28;20210;-63
2021/04/23 14:49:47;;;;;;;4.40;2.53;;;;;;;;;;5076739;28;20261;-62